sensor_id;sensor_type;location;lat;lon;timestamp;pressure;altitude;pressure_sealevel;temperature;humidity
54924;BME280;40825;52.270;20.984;2023-07-13T00:00:41;100128.65;;;19.75;82.76
54924;BME280;40825;52.270;20.984;2023-07-13T00:06:31;100127.36;;;19.67;82.39
54924;BME280;40825;52.270;20.984;2023-07-13T00:08:59;100126.45;;;19.65;82.56
54924;BME280;40825;52.270;20.984;2023-07-13T00:11:38;100130.61;;;19.64;83.48
54924;BME280;40825;52.270;20.984;2023-07-13T00:14:04;100133.80;;;19.63;83.11
54924;BME280;40825;52.270;20.984;2023-07-13T00:16:30;100128.88;;;19.63;83.22
54924;BME280;40825;52.270;20.984;2023-07-13T00:18:55;100119.52;;;19.63;83.16
54924;BME280;40825;52.270;20.984;2023-07-13T00:21:21;100113.50;;;19.62;83.32
54924;BME280;40825;52.270;20.984;2023-07-13T00:23:57;100112.83;;;19.61;82.43
54924;BME280;40825;52.270;20.984;2023-07-13T00:26:34;100113.77;;;19.63;82.48
54924;BME280;40825;52.270;20.984;2023-07-13T00:29:20;100116.33;;;19.65;82.22
54924;BME280;40825;52.270;20.984;2023-07-13T00:31:48;100113.27;;;19.66;82.23
54924;BME280;40825;52.270;20.984;2023-07-13T00:34:21;100110.59;;;19.65;82.52
54924;BME280;40825;52.270;20.984;2023-07-13T00:36:50;100110.25;;;19.64;82.12
54924;BME280;40825;52.270;20.984;2023-07-13T00:39:36;100113.33;;;19.63;82.34
54924;BME280;40825;52.270;20.984;2023-07-13T00:42:07;100118.58;;;19.62;82.70
54924;BME280;40825;52.270;20.984;2023-07-13T00:45:00;100115.37;;;19.61;83.16
54924;BME280;40825;52.270;20.984;2023-07-13T00:47:29;100117.58;;;19.58;83.69
54924;BME280;40825;52.270;20.984;2023-07-13T00:49:55;100122.27;;;19.55;83.42
54924;BME280;40825;52.270;20.984;2023-07-13T00:53:23;100119.33;;;19.56;82.80
54924;BME280;40825;52.270;20.984;2023-07-13T00:55:57;100112.55;;;19.54;83.01
54924;BME280;40825;52.270;20.984;2023-07-13T00:58:27;100110.27;;;19.54;82.70
54924;BME280;40825;52.270;20.984;2023-07-13T01:00:59;100112.44;;;19.54;82.36
54924;BME280;40825;52.270;20.984;2023-07-13T01:03:31;100117.42;;;19.53;83.09
54924;BME280;40825;52.270;20.984;2023-07-13T01:06:35;100110.12;;;19.54;82.50
54924;BME280;40825;52.270;20.984;2023-07-13T01:09:01;100107.62;;;19.52;82.55
54924;BME280;40825;52.270;20.984;2023-07-13T01:11:28;100108.54;;;19.52;82.90
54924;BME280;40825;52.270;20.984;2023-07-13T01:13:59;100109.73;;;19.54;82.79
54924;BME280;40825;52.270;20.984;2023-07-13T01:19:45;100110.67;;;19.55;82.58
54924;BME280;40825;52.270;20.984;2023-07-13T01:22:18;100114.02;;;19.53;82.45
54924;BME280;40825;52.270;20.984;2023-07-13T01:24:54;100117.62;;;19.50;82.74
54924;BME280;40825;52.270;20.984;2023-07-13T01:27:28;100120.81;;;19.51;83.15
54924;BME280;40825;52.270;20.984;2023-07-13T01:30:34;100118.13;;;19.52;83.18
54924;BME280;40825;52.270;20.984;2023-07-13T01:33:18;100118.13;;;19.52;84.17
54924;BME280;40825;52.270;20.984;2023-07-13T01:35:46;100124.35;;;19.51;83.49
54924;BME280;40825;52.270;20.984;2023-07-13T01:38:21;100129.71;;;19.53;83.82
54924;BME280;40825;52.270;20.984;2023-07-13T01:40:51;100131.29;;;19.53;84.51
54924;BME280;40825;52.270;20.984;2023-07-13T01:43:21;100140.58;;;19.50;84.19
54924;BME280;40825;52.270;20.984;2023-07-13T01:45:52;100147.48;;;19.49;83.77
54924;BME280;40825;52.270;20.984;2023-07-13T01:48:21;100141.21;;;19.49;84.13
54924;BME280;40825;52.270;20.984;2023-07-13T01:50:47;100138.39;;;19.48;84.07
54924;BME280;40825;52.270;20.984;2023-07-13T01:56:24;100135.63;;;19.47;84.29
54924;BME280;40825;52.270;20.984;2023-07-13T01:58:56;100137.50;;;19.45;83.92
54924;BME280;40825;52.270;20.984;2023-07-13T02:01:27;100136.68;;;19.44;83.52
54924;BME280;40825;52.270;20.984;2023-07-13T02:04:02;100138.77;;;19.42;83.71
54924;BME280;40825;52.270;20.984;2023-07-13T02:06:31;100137.77;;;19.39;85.17
54924;BME280;40825;52.270;20.984;2023-07-13T02:09:20;100138.81;;;19.34;85.64
54924;BME280;40825;52.270;20.984;2023-07-13T02:11:46;100140.02;;;19.31;85.64
54924;BME280;40825;52.270;20.984;2023-07-13T02:14:39;100142.39;;;19.30;84.92
54924;BME280;40825;52.270;20.984;2023-07-13T02:17:05;100147.98;;;19.32;84.58
54924;BME280;40825;52.270;20.984;2023-07-13T02:19:31;100149.49;;;19.31;85.35
54924;BME280;40825;52.270;20.984;2023-07-13T02:22:00;100147.39;;;19.27;87.83
54924;BME280;40825;52.270;20.984;2023-07-13T02:24:28;100145.06;;;19.21;88.00
54924;BME280;40825;52.270;20.984;2023-07-13T02:27:14;100148.34;;;19.17;86.74
54924;BME280;40825;52.270;20.984;2023-07-13T02:29:56;100154.58;;;19.14;87.21
54924;BME280;40825;52.270;20.984;2023-07-13T02:32:21;100153.45;;;19.09;86.47
54924;BME280;40825;52.270;20.984;2023-07-13T02:34:56;100148.08;;;19.08;87.27
54924;BME280;40825;52.270;20.984;2023-07-13T02:37:36;100153.90;;;19.06;87.10
54924;BME280;40825;52.270;20.984;2023-07-13T02:40:15;100155.89;;;19.05;87.90
54924;BME280;40825;52.270;20.984;2023-07-13T02:42:44;100155.84;;;19.02;88.59
54924;BME280;40825;52.270;20.984;2023-07-13T02:45:21;100155.62;;;18.98;88.22
54924;BME280;40825;52.270;20.984;2023-07-13T02:47:47;100154.56;;;18.95;88.75
54924;BME280;40825;52.270;20.984;2023-07-13T02:50:15;100157.72;;;18.96;88.19
54924;BME280;40825;52.270;20.984;2023-07-13T02:52:46;100155.28;;;18.96;87.33
54924;BME280;40825;52.270;20.984;2023-07-13T02:55:34;100148.14;;;19.00;87.07
54924;BME280;40825;52.270;20.984;2023-07-13T02:58:31;100144.45;;;19.03;86.96
54924;BME280;40825;52.270;20.984;2023-07-13T03:04:32;100142.17;;;19.08;87.63
54924;BME280;40825;52.270;20.984;2023-07-13T03:07:18;100144.83;;;19.08;88.04
54924;BME280;40825;52.270;20.984;2023-07-13T03:10:00;100149.52;;;19.08;86.79
54924;BME280;40825;52.270;20.984;2023-07-13T03:13:06;100148.73;;;19.08;86.44
54924;BME280;40825;52.270;20.984;2023-07-13T03:15:56;100146.56;;;19.08;86.70
54924;BME280;40825;52.270;20.984;2023-07-13T03:18:35;100146.77;;;19.13;87.89
54924;BME280;40825;52.270;20.984;2023-07-13T03:21:05;100144.57;;;19.10;87.67
54924;BME280;40825;52.270;20.984;2023-07-13T03:23:59;100145.63;;;19.06;87.61
54924;BME280;40825;52.270;20.984;2023-07-13T03:29:23;100143.05;;;19.00;89.09
54924;BME280;40825;52.270;20.984;2023-07-13T03:31:52;100139.98;;;18.97;89.33
54924;BME280;40825;52.270;20.984;2023-07-13T03:34:20;100137.79;;;18.95;89.58
54924;BME280;40825;52.270;20.984;2023-07-13T03:39:43;100129.77;;;18.99;88.38
54924;BME280;40825;52.270;20.984;2023-07-13T03:42:46;100126.15;;;19.03;88.14
54924;BME280;40825;52.270;20.984;2023-07-13T03:45:14;100124.40;;;19.12;87.76
54924;BME280;40825;52.270;20.984;2023-07-13T03:47:51;100122.16;;;19.20;87.64
54924;BME280;40825;52.270;20.984;2023-07-13T03:50:37;100127.64;;;19.26;88.65
54924;BME280;40825;52.270;20.984;2023-07-13T03:53:26;100127.90;;;19.31;88.06
54924;BME280;40825;52.270;20.984;2023-07-13T03:59:24;100124.30;;;19.59;87.56
54924;BME280;40825;52.270;20.984;2023-07-13T04:01:50;100128.92;;;19.68;87.53
54924;BME280;40825;52.270;20.984;2023-07-13T04:04:16;100130.17;;;19.75;87.38
54924;BME280;40825;52.270;20.984;2023-07-13T04:06:41;100132.70;;;19.83;87.47
54924;BME280;40825;52.270;20.984;2023-07-13T04:09:28;100133.77;;;19.92;87.20
54924;BME280;40825;52.270;20.984;2023-07-13T04:11:53;100131.20;;;20.02;87.23
54924;BME280;40825;52.270;20.984;2023-07-13T04:14:23;100134.08;;;20.13;87.29
54924;BME280;40825;52.270;20.984;2023-07-13T04:16:55;100135.89;;;20.26;86.97
54924;BME280;40825;52.270;20.984;2023-07-13T04:19:23;100144.55;;;20.57;86.90
54924;BME280;40825;52.270;20.984;2023-07-13T04:22:00;100153.36;;;21.04;86.30
54924;BME280;40825;52.270;20.984;2023-07-13T04:24:29;100161.46;;;21.30;85.80
54924;BME280;40825;52.270;20.984;2023-07-13T04:30:23;100161.61;;;21.60;85.65
54924;BME280;40825;52.270;20.984;2023-07-13T04:32:51;100170.93;;;21.69;85.49
54924;BME280;40825;52.270;20.984;2023-07-13T04:35:29;100175.77;;;21.74;85.39
54924;BME280;40825;52.270;20.984;2023-07-13T04:37:54;100178.54;;;21.80;85.24
54924;BME280;40825;52.270;20.984;2023-07-13T04:40:20;100176.14;;;21.84;84.99
54924;BME280;40825;52.270;20.984;2023-07-13T04:42:48;100178.98;;;21.90;84.90
54924;BME280;40825;52.270;20.984;2023-07-13T04:45:14;100182.77;;;21.98;84.76
54924;BME280;40825;52.270;20.984;2023-07-13T04:47:41;100184.61;;;22.05;84.56
54924;BME280;40825;52.270;20.984;2023-07-13T04:50:08;100189.30;;;22.06;84.33
54924;BME280;40825;52.270;20.984;2023-07-13T04:52:34;100189.66;;;22.02;84.35
54924;BME280;40825;52.270;20.984;2023-07-13T04:55:00;100188.36;;;21.99;84.28
54924;BME280;40825;52.270;20.984;2023-07-13T04:57:29;100185.77;;;21.95;84.13
54924;BME280;40825;52.270;20.984;2023-07-13T04:59:58;100186.26;;;21.91;84.01
54924;BME280;40825;52.270;20.984;2023-07-13T05:02:27;100186.33;;;21.83;84.05
54924;BME280;40825;52.270;20.984;2023-07-13T05:04:56;100183.27;;;21.82;83.97
54924;BME280;40825;52.270;20.984;2023-07-13T05:07:46;100186.27;;;21.82;83.95
54924;BME280;40825;52.270;20.984;2023-07-13T05:10:11;100190.98;;;21.78;84.08
54924;BME280;40825;52.270;20.984;2023-07-13T05:12:40;100198.10;;;21.73;84.09
54924;BME280;40825;52.270;20.984;2023-07-13T05:15:07;100203.81;;;21.71;84.02
54924;BME280;40825;52.270;20.984;2023-07-13T05:17:36;100203.38;;;21.72;84.21
54924;BME280;40825;52.270;20.984;2023-07-13T05:20:06;100202.93;;;21.70;84.07
54924;BME280;40825;52.270;20.984;2023-07-13T05:22:38;100203.59;;;21.71;84.18
54924;BME280;40825;52.270;20.984;2023-07-13T05:28:31;100217.83;;;21.77;84.31
54924;BME280;40825;52.270;20.984;2023-07-13T05:31:20;100222.61;;;21.83;84.03
54924;BME280;40825;52.270;20.984;2023-07-13T05:34:14;100227.56;;;21.88;84.01
54924;BME280;40825;52.270;20.984;2023-07-13T05:37:03;100229.46;;;21.94;83.99
54924;BME280;40825;52.270;20.984;2023-07-13T05:39:28;100233.38;;;22.03;83.79
54924;BME280;40825;52.270;20.984;2023-07-13T05:41:54;100240.60;;;22.18;83.56
54924;BME280;40825;52.270;20.984;2023-07-13T05:44:45;100247.00;;;22.34;83.36
54924;BME280;40825;52.270;20.984;2023-07-13T05:47:51;100242.69;;;22.56;83.00
54924;BME280;40825;52.270;20.984;2023-07-13T05:50:17;100242.98;;;22.74;82.21
54924;BME280;40825;52.270;20.984;2023-07-13T05:52:46;100244.42;;;22.80;81.77
54924;BME280;40825;52.270;20.984;2023-07-13T05:55:18;100240.94;;;22.82;81.64
54924;BME280;40825;52.270;20.984;2023-07-13T05:58:06;100244.20;;;22.85;81.95
54924;BME280;40825;52.270;20.984;2023-07-13T06:00:32;100238.26;;;22.84;82.02
54924;BME280;40825;52.270;20.984;2023-07-13T06:03:01;100228.96;;;22.82;81.76
54924;BME280;40825;52.270;20.984;2023-07-13T06:05:29;100222.10;;;22.83;81.52
54924;BME280;40825;52.270;20.984;2023-07-13T06:07:55;100213.67;;;22.79;80.32
54924;BME280;40825;52.270;20.984;2023-07-13T06:10:32;100216.56;;;22.79;80.80
54924;BME280;40825;52.270;20.984;2023-07-13T06:13:01;100225.72;;;22.91;81.06
54924;BME280;40825;52.270;20.984;2023-07-13T06:15:26;100224.91;;;23.03;80.69
54924;BME280;40825;52.270;20.984;2023-07-13T06:17:52;100224.69;;;23.28;79.17
54924;BME280;40825;52.270;20.984;2023-07-13T06:20:18;100222.51;;;23.41;77.50
54924;BME280;40825;52.270;20.984;2023-07-13T06:22:44;100228.29;;;23.48;77.37
54924;BME280;40825;52.270;20.984;2023-07-13T06:25:09;100225.17;;;23.57;78.26
54924;BME280;40825;52.270;20.984;2023-07-13T06:27:38;100217.44;;;24.45;76.64
54924;BME280;40825;52.270;20.984;2023-07-13T06:30:04;100221.34;;;25.04;74.28
54924;BME280;40825;52.270;20.984;2023-07-13T06:32:29;100215.84;;;25.54;72.29
54924;BME280;40825;52.270;20.984;2023-07-13T06:34:55;100214.69;;;26.19;71.91
54924;BME280;40825;52.270;20.984;2023-07-13T06:37:21;100220.79;;;26.43;69.46
54924;BME280;40825;52.270;20.984;2023-07-13T06:39:46;100223.41;;;26.64;72.02
54924;BME280;40825;52.270;20.984;2023-07-13T06:42:12;100219.81;;;26.82;68.95
54924;BME280;40825;52.270;20.984;2023-07-13T06:44:37;100222.03;;;27.52;66.96
54924;BME280;40825;52.270;20.984;2023-07-13T06:47:03;100222.83;;;28.73;66.71
54924;BME280;40825;52.270;20.984;2023-07-13T06:49:28;100219.83;;;29.50;60.27
54924;BME280;40825;52.270;20.984;2023-07-13T06:51:54;100217.67;;;30.25;58.58
54924;BME280;40825;52.270;20.984;2023-07-13T06:54:19;100221.92;;;30.51;56.94
54924;BME280;40825;52.270;20.984;2023-07-13T06:56:45;100220.99;;;30.69;50.38
54924;BME280;40825;52.270;20.984;2023-07-13T06:59:10;100217.17;;;31.28;49.29
54924;BME280;40825;52.270;20.984;2023-07-13T07:01:36;100215.73;;;31.68;46.96
54924;BME280;40825;52.270;20.984;2023-07-13T07:04:03;100208.95;;;32.00;45.64
54924;BME280;40825;52.270;20.984;2023-07-13T07:06:28;100204.64;;;32.41;44.02
54924;BME280;40825;52.270;20.984;2023-07-13T07:08:54;100207.39;;;32.78;45.36
54924;BME280;40825;52.270;20.984;2023-07-13T07:11:25;100212.17;;;33.22;40.95
54924;BME280;40825;52.270;20.984;2023-07-13T07:13:52;100214.74;;;33.48;41.97
54924;BME280;40825;52.270;20.984;2023-07-13T07:16:19;100212.88;;;33.85;39.55
54924;BME280;40825;52.270;20.984;2023-07-13T07:18:45;100215.47;;;34.04;37.80
54924;BME280;40825;52.270;20.984;2023-07-13T07:21:11;100214.88;;;34.09;36.28
54924;BME280;40825;52.270;20.984;2023-07-13T07:23:36;100213.11;;;34.52;35.95
54924;BME280;40825;52.270;20.984;2023-07-13T07:26:02;100214.68;;;34.87;37.74
54924;BME280;40825;52.270;20.984;2023-07-13T07:28:28;100213.42;;;35.12;33.73
54924;BME280;40825;52.270;20.984;2023-07-13T07:30:56;100215.98;;;35.16;32.85
54924;BME280;40825;52.270;20.984;2023-07-13T07:33:23;100215.97;;;35.32;32.94
54924;BME280;40825;52.270;20.984;2023-07-13T07:35:48;100216.48;;;35.42;32.57
54924;BME280;40825;52.270;20.984;2023-07-13T07:38:14;100217.06;;;35.35;32.08
54924;BME280;40825;52.270;20.984;2023-07-13T07:40:41;100212.98;;;35.29;32.65
54924;BME280;40825;52.270;20.984;2023-07-13T07:43:07;100213.98;;;35.68;33.18
54924;BME280;40825;52.270;20.984;2023-07-13T07:45:34;100211.24;;;36.10;32.62
54924;BME280;40825;52.270;20.984;2023-07-13T07:47:59;100214.58;;;36.28;30.90
54924;BME280;40825;52.270;20.984;2023-07-13T07:50:26;100216.98;;;36.35;30.29
54924;BME280;40825;52.270;20.984;2023-07-13T07:52:51;100214.16;;;35.92;29.80
54924;BME280;40825;52.270;20.984;2023-07-13T07:55:17;100209.71;;;34.89;32.03
54924;BME280;40825;52.270;20.984;2023-07-13T07:57:43;100217.66;;;34.38;32.31
54924;BME280;40825;52.270;20.984;2023-07-13T08:00:09;100221.36;;;34.31;32.13
54924;BME280;40825;52.270;20.984;2023-07-13T08:02:34;100218.00;;;33.92;32.98
54924;BME280;40825;52.270;20.984;2023-07-13T08:05:00;100215.63;;;33.84;33.45
54924;BME280;40825;52.270;20.984;2023-07-13T08:07:25;100214.52;;;33.63;33.83
54924;BME280;40825;52.270;20.984;2023-07-13T08:09:54;100214.06;;;33.17;34.21
54924;BME280;40825;52.270;20.984;2023-07-13T08:12:19;100214.27;;;32.73;34.91
54924;BME280;40825;52.270;20.984;2023-07-13T08:14:45;100214.98;;;32.36;35.55
54924;BME280;40825;52.270;20.984;2023-07-13T08:17:14;100216.89;;;31.92;36.00
54924;BME280;40825;52.270;20.984;2023-07-13T08:19:39;100219.85;;;31.64;36.65
54924;BME280;40825;52.270;20.984;2023-07-13T08:22:05;100220.55;;;31.51;37.19
54924;BME280;40825;52.270;20.984;2023-07-13T08:24:30;100220.97;;;31.37;37.58
54924;BME280;40825;52.270;20.984;2023-07-13T08:26:56;100217.69;;;31.70;37.89
54924;BME280;40825;52.270;20.984;2023-07-13T08:29:21;100214.14;;;31.25;37.70
54924;BME280;40825;52.270;20.984;2023-07-13T08:31:48;100214.80;;;31.37;37.70
54924;BME280;40825;52.270;20.984;2023-07-13T08:34:13;100214.15;;;32.35;36.82
54924;BME280;40825;52.270;20.984;2023-07-13T08:36:40;100220.73;;;32.55;36.51
54924;BME280;40825;52.270;20.984;2023-07-13T08:39:05;100225.52;;;33.03;35.44
54924;BME280;40825;52.270;20.984;2023-07-13T08:41:32;100226.36;;;33.59;34.62
54924;BME280;40825;52.270;20.984;2023-07-13T08:43:59;100227.32;;;33.65;33.45
54924;BME280;40825;52.270;20.984;2023-07-13T08:48:58;100230.01;;;34.16;32.73
54924;BME280;40825;52.270;20.984;2023-07-13T08:54:38;100244.03;;;33.72;32.92
54924;BME280;40825;52.270;20.984;2023-07-13T08:57:13;100242.29;;;33.63;33.79
54924;BME280;40825;52.270;20.984;2023-07-13T08:59:39;100240.31;;;33.25;33.37
54924;BME280;40825;52.270;20.984;2023-07-13T09:04:59;100240.73;;;32.11;34.94
54924;BME280;40825;52.270;20.984;2023-07-13T09:07:32;100243.14;;;32.10;35.01
54924;BME280;40825;52.270;20.984;2023-07-13T09:10:18;100244.55;;;32.24;35.38
54924;BME280;40825;52.270;20.984;2023-07-13T09:15:24;100241.38;;;32.26;35.58
54924;BME280;40825;52.270;20.984;2023-07-13T09:17:52;100239.23;;;32.35;35.99
54924;BME280;40825;52.270;20.984;2023-07-13T09:20:37;100241.44;;;32.37;36.03
54924;BME280;40825;52.270;20.984;2023-07-13T09:23:09;100244.23;;;32.29;35.91
54924;BME280;40825;52.270;20.984;2023-07-13T09:25:39;100250.11;;;32.04;36.38
54924;BME280;40825;52.270;20.984;2023-07-13T09:28:18;100250.39;;;31.53;37.00
54924;BME280;40825;52.270;20.984;2023-07-13T09:33:13;100244.66;;;29.82;39.26
54924;BME280;40825;52.270;20.984;2023-07-13T09:35:39;100247.13;;;29.30;39.68
54924;BME280;40825;52.270;20.984;2023-07-13T09:38:12;100247.14;;;28.74;40.46
54924;BME280;40825;52.270;20.984;2023-07-13T09:41:33;100247.65;;;28.14;41.66
54924;BME280;40825;52.270;20.984;2023-07-13T09:43:34;100249.20;;;27.49;42.68
54924;BME280;40825;52.270;20.984;2023-07-13T09:46:00;100245.45;;;26.98;43.09
54924;BME280;40825;52.270;20.984;2023-07-13T09:48:34;100236.55;;;26.55;45.95
54924;BME280;40825;52.270;20.984;2023-07-13T09:51:07;100230.41;;;26.15;46.24
54924;BME280;40825;52.270;20.984;2023-07-13T09:53:44;100227.58;;;25.91;45.52
54924;BME280;40825;52.270;20.984;2023-07-13T09:56:25;100223.27;;;25.80;45.72
54924;BME280;40825;52.270;20.984;2023-07-13T09:58:52;100222.02;;;25.84;45.91
54924;BME280;40825;52.270;20.984;2023-07-13T10:01:38;100222.37;;;25.96;46.06
54924;BME280;40825;52.270;20.984;2023-07-13T10:04:12;100220.98;;;26.16;46.82
54924;BME280;40825;52.270;20.984;2023-07-13T10:06:39;100216.75;;;26.25;46.63
54924;BME280;40825;52.270;20.984;2023-07-13T10:09:17;100209.11;;;26.20;46.48
54924;BME280;40825;52.270;20.984;2023-07-13T10:11:44;100205.54;;;26.07;47.01
54924;BME280;40825;52.270;20.984;2023-07-13T10:14:21;100209.21;;;26.00;46.88
54924;BME280;40825;52.270;20.984;2023-07-13T10:16:55;100205.03;;;25.92;47.27
54924;BME280;40825;52.270;20.984;2023-07-13T10:19:26;100206.27;;;25.83;47.61
54924;BME280;40825;52.270;20.984;2023-07-13T10:21:59;100202.55;;;25.73;47.62
54924;BME280;40825;52.270;20.984;2023-07-13T10:24:36;100201.49;;;25.57;49.02
54924;BME280;40825;52.270;20.984;2023-07-13T10:27:12;100200.91;;;25.40;48.58
54924;BME280;40825;52.270;20.984;2023-07-13T10:29:49;100198.06;;;25.20;48.65
54924;BME280;40825;52.270;20.984;2023-07-13T10:32:19;100194.66;;;25.01;49.48
54924;BME280;40825;52.270;20.984;2023-07-13T10:34:50;100200.52;;;24.88;50.36
54924;BME280;40825;52.270;20.984;2023-07-13T10:37:27;100206.56;;;24.79;51.12
54924;BME280;40825;52.270;20.984;2023-07-13T10:40:13;100225.40;;;24.64;51.63
54924;BME280;40825;52.270;20.984;2023-07-13T10:42:49;100238.11;;;24.39;53.87
54924;BME280;40825;52.270;20.984;2023-07-13T10:45:20;100246.17;;;23.99;54.70
54924;BME280;40825;52.270;20.984;2023-07-13T10:47:47;100257.98;;;23.65;54.65
54924;BME280;40825;52.270;20.984;2023-07-13T10:50:35;100267.06;;;23.29;55.88
54924;BME280;40825;52.270;20.984;2023-07-13T10:53:30;100265.98;;;22.77;57.23
54924;BME280;40825;52.270;20.984;2023-07-13T10:56:06;100261.75;;;22.19;59.10
54924;BME280;40825;52.270;20.984;2023-07-13T10:58:46;100260.09;;;21.72;60.57
54924;BME280;40825;52.270;20.984;2023-07-13T11:01:39;100260.30;;;21.34;61.42
54924;BME280;40825;52.270;20.984;2023-07-13T11:04:18;100269.03;;;21.00;63.64
54924;BME280;40825;52.270;20.984;2023-07-13T11:06:50;100270.57;;;20.61;63.99
54924;BME280;40825;52.270;20.984;2023-07-13T11:12:27;100283.15;;;20.03;65.47
54924;BME280;40825;52.270;20.984;2023-07-13T11:17:53;100295.86;;;19.59;65.44
54924;BME280;40825;52.270;20.984;2023-07-13T11:20:35;100299.18;;;19.46;66.61
54924;BME280;40825;52.270;20.984;2023-07-13T11:23:34;100300.61;;;19.39;66.45
54924;BME280;40825;52.270;20.984;2023-07-13T11:26:53;100305.98;;;19.21;66.99
54924;BME280;40825;52.270;20.984;2023-07-13T11:29:38;100310.70;;;19.14;72.59
54924;BME280;40825;52.270;20.984;2023-07-13T11:32:34;100307.79;;;19.10;72.27
54924;BME280;40825;52.270;20.984;2023-07-13T11:35:31;100311.77;;;19.09;69.73
54924;BME280;40825;52.270;20.984;2023-07-13T11:38:21;100311.80;;;19.11;71.46
54924;BME280;40825;52.270;20.984;2023-07-13T11:41:18;100316.71;;;19.14;71.81
54924;BME280;40825;52.270;20.984;2023-07-13T11:47:22;100321.88;;;19.15;71.40
54924;BME280;40825;52.270;20.984;2023-07-13T11:50:32;100319.92;;;19.11;74.50
54924;BME280;40825;52.270;20.984;2023-07-13T11:53:20;100315.74;;;19.01;74.74
54924;BME280;40825;52.270;20.984;2023-07-13T11:55:50;100319.46;;;18.99;75.01
54924;BME280;40825;52.270;20.984;2023-07-13T11:58:54;100322.98;;;18.95;76.37
54924;BME280;40825;52.270;20.984;2023-07-13T12:01:27;100318.45;;;18.92;75.75
54924;BME280;40825;52.270;20.984;2023-07-13T12:04:02;100321.95;;;18.97;77.20
54924;BME280;40825;52.270;20.984;2023-07-13T12:07:04;100320.25;;;19.04;77.53
54924;BME280;40825;52.270;20.984;2023-07-13T12:09:33;100322.40;;;19.14;77.84
54924;BME280;40825;52.270;20.984;2023-07-13T12:12:13;100319.14;;;19.21;76.50
54924;BME280;40825;52.270;20.984;2023-07-13T12:14:45;100318.10;;;19.25;78.26
54924;BME280;40825;52.270;20.984;2023-07-13T12:17:20;100315.39;;;19.29;86.52
54924;BME280;40825;52.270;20.984;2023-07-13T12:23:34;100309.91;;;19.15;89.66
54924;BME280;40825;52.270;20.984;2023-07-13T12:26:23;100306.76;;;19.06;85.71
54924;BME280;40825;52.270;20.984;2023-07-13T12:28:54;100301.81;;;19.08;85.30
54924;BME280;40825;52.270;20.984;2023-07-13T12:34:16;100302.35;;;19.01;87.37
54924;BME280;40825;52.270;20.984;2023-07-13T12:37:07;100302.27;;;18.97;88.41
54924;BME280;40825;52.270;20.984;2023-07-13T12:39:45;100297.14;;;18.97;86.28
54924;BME280;40825;52.270;20.984;2023-07-13T12:42:38;100299.89;;;19.03;84.01
54924;BME280;40825;52.270;20.984;2023-07-13T12:45:28;100298.41;;;19.13;82.98
54924;BME280;40825;52.270;20.984;2023-07-13T12:48:02;100298.89;;;19.21;83.50
54924;BME280;40825;52.270;20.984;2023-07-13T12:50:41;100299.41;;;19.28;82.88
54924;BME280;40825;52.270;20.984;2023-07-13T12:53:39;100299.84;;;19.32;83.52
54924;BME280;40825;52.270;20.984;2023-07-13T12:56:14;100301.16;;;19.34;83.30
54924;BME280;40825;52.270;20.984;2023-07-13T12:58:42;100297.61;;;19.33;88.21
54924;BME280;40825;52.270;20.984;2023-07-13T13:01:30;100294.60;;;19.29;86.47
54924;BME280;40825;52.270;20.984;2023-07-13T13:04:18;100288.86;;;19.28;87.20
54924;BME280;40825;52.270;20.984;2023-07-13T13:06:47;100287.56;;;19.24;88.31
54924;BME280;40825;52.270;20.984;2023-07-13T13:09:17;100291.00;;;19.27;86.17
54924;BME280;40825;52.270;20.984;2023-07-13T13:11:47;100291.94;;;19.32;85.72
54924;BME280;40825;52.270;20.984;2023-07-13T13:14:13;100295.21;;;19.35;85.43
54924;BME280;40825;52.270;20.984;2023-07-13T13:16:48;100295.08;;;19.37;85.82
54924;BME280;40825;52.270;20.984;2023-07-13T13:19:35;100300.41;;;19.39;84.94
54924;BME280;40825;52.270;20.984;2023-07-13T13:22:01;100299.09;;;19.41;84.58
54924;BME280;40825;52.270;20.984;2023-07-13T13:24:40;100303.36;;;19.43;84.64
54924;BME280;40825;52.270;20.984;2023-07-13T13:27:20;100304.58;;;19.44;85.26
54924;BME280;40825;52.270;20.984;2023-07-13T13:29:46;100307.98;;;19.48;85.56
54924;BME280;40825;52.270;20.984;2023-07-13T13:32:15;100308.07;;;19.51;85.11
54924;BME280;40825;52.270;20.984;2023-07-13T13:34:41;100308.38;;;19.56;86.07
54924;BME280;40825;52.270;20.984;2023-07-13T13:37:26;100311.99;;;19.59;86.37
54924;BME280;40825;52.270;20.984;2023-07-13T13:39:51;100314.41;;;19.67;86.53
54924;BME280;40825;52.270;20.984;2023-07-13T13:42:19;100316.10;;;19.73;86.53
54924;BME280;40825;52.270;20.984;2023-07-13T13:44:48;100320.52;;;19.81;86.74
54924;BME280;40825;52.270;20.984;2023-07-13T13:47:32;100323.94;;;19.86;86.38
54924;BME280;40825;52.270;20.984;2023-07-13T13:50:21;100318.95;;;19.91;87.24
54924;BME280;40825;52.270;20.984;2023-07-13T13:52:48;100324.63;;;19.98;86.60
54924;BME280;40825;52.270;20.984;2023-07-13T13:55:20;100321.27;;;20.03;86.86
54924;BME280;40825;52.270;20.984;2023-07-13T13:57:49;100321.92;;;20.10;86.75
54924;BME280;40825;52.270;20.984;2023-07-13T14:00:16;100326.17;;;20.14;86.39
54924;BME280;40825;52.270;20.984;2023-07-13T14:02:45;100326.63;;;20.15;87.17
54924;BME280;40825;52.270;20.984;2023-07-13T14:05:21;100329.19;;;20.17;86.65
54924;BME280;40825;52.270;20.984;2023-07-13T14:07:50;100333.23;;;20.19;87.53
54924;BME280;40825;52.270;20.984;2023-07-13T14:10:17;100330.04;;;20.22;87.97
54924;BME280;40825;52.270;20.984;2023-07-13T14:13:02;100331.88;;;20.28;87.86